createdAt,value
2023-05-22T00:01:51.887Z,58.20
2023-05-22T00:04:22.041Z,58.10
2023-05-22T00:06:49.418Z,58.20
2023-05-22T00:09:16.498Z,58.10
2023-05-22T00:11:43.516Z,58.20
2023-05-22T00:14:10.345Z,58.30
2023-05-22T00:16:37.285Z,58.30
2023-05-22T00:19:04.502Z,58.30
2023-05-22T00:21:34.787Z,58.20
2023-05-22T00:24:02.094Z,58.20
2023-05-22T00:26:28.966Z,58.30
2023-05-22T00:28:56.745Z,58.30
2023-05-22T00:31:23.979Z,58.30
2023-05-22T00:33:50.961Z,58.90
2023-05-22T00:36:18.834Z,58.40
2023-05-22T00:38:46.328Z,58.30
2023-05-22T00:41:13.456Z,58.30
2023-05-22T00:43:40.469Z,58.30
2023-05-22T00:46:10.266Z,58.40
2023-05-22T00:48:37.080Z,58.40
2023-05-22T00:51:04.084Z,58.30
2023-05-22T00:53:31.619Z,58.30
2023-05-22T00:55:59.090Z,58.20
2023-05-22T00:58:26.352Z,58.20
2023-05-22T01:00:53.255Z,58.50
2023-05-22T01:03:25.960Z,58.40
2023-05-22T01:05:53.924Z,58.40
2023-05-22T01:08:21.472Z,58.40
2023-05-22T01:10:50.702Z,58.50
2023-05-22T01:13:17.529Z,58.60
2023-05-22T01:15:49.841Z,58.70
2023-05-22T01:18:19.879Z,58.80
2023-05-22T01:20:48.834Z,58.80
2023-05-22T01:23:21.794Z,58.80
2023-05-22T01:25:56.664Z,58.80
2023-05-22T01:28:29.655Z,59.10
2023-05-22T01:31:00.793Z,59.40
2023-05-22T01:33:30.104Z,59.40
2023-05-22T01:35:57.831Z,59.50
2023-05-22T01:38:24.978Z,59.80
2023-05-22T01:40:53.884Z,60.20
2023-05-22T01:43:20.932Z,61.00
2023-05-22T01:45:47.849Z,61.40
2023-05-22T01:48:14.715Z,61.70
2023-05-22T01:50:41.847Z,62.20
2023-05-22T01:53:28.785Z,62.70
2023-05-22T01:55:55.960Z,63.10
2023-05-22T01:58:41.845Z,63.40
2023-05-22T02:01:10.181Z,63.80
2023-05-22T02:03:39.627Z,64.20
2023-05-22T02:06:07.737Z,64.60
2023-05-22T02:08:38.267Z,65.00
2023-05-22T02:11:05.295Z,65.40
2023-05-22T02:13:32.378Z,66.10
2023-05-22T02:15:59.499Z,66.60
2023-05-22T02:18:29.524Z,66.90
2023-05-22T02:21:00.528Z,67.10
2023-05-22T02:23:29.731Z,67.20
2023-05-22T02:25:56.944Z,67.30
2023-05-22T02:28:24.005Z,67.40
2023-05-22T02:30:50.934Z,67.60
2023-05-22T02:33:18.639Z,68.00
2023-05-22T02:35:45.996Z,68.50
2023-05-22T02:38:12.973Z,68.90
2023-05-22T02:40:40.190Z,69.30
2023-05-22T02:43:08.271Z,69.60
2023-05-22T02:45:36.079Z,69.70
2023-05-22T02:48:03.799Z,70.10
2023-05-22T02:50:32.027Z,70.40
2023-05-22T02:52:58.832Z,70.70
2023-05-22T02:55:25.715Z,70.90
2023-05-22T02:57:52.801Z,71.30
2023-05-22T03:00:19.926Z,71.20
2023-05-22T03:02:47.348Z,71.10
2023-05-22T03:05:17.881Z,70.90
2023-05-22T03:07:48.185Z,70.90
2023-05-22T03:10:15.659Z,70.80
2023-05-22T03:12:42.591Z,70.80
2023-05-22T03:15:11.120Z,70.70
2023-05-22T03:17:39.831Z,70.40
2023-05-22T03:20:08.616Z,70.00
2023-05-22T03:22:35.584Z,70.00
2023-05-22T03:25:02.560Z,69.90
2023-05-22T03:27:29.950Z,69.80
2023-05-22T03:29:56.834Z,69.70
2023-05-22T03:32:24.446Z,69.50
2023-05-22T03:34:51.858Z,69.30
2023-05-22T03:37:18.806Z,69.10
2023-05-22T03:39:46.021Z,68.90
2023-05-22T03:42:25.006Z,68.80
2023-05-22T03:44:51.853Z,68.90
2023-05-22T03:47:19.183Z,69.00
2023-05-22T03:49:46.927Z,69.30
2023-05-22T03:52:13.789Z,69.30
2023-05-22T03:54:40.672Z,69.40
2023-05-22T03:57:07.697Z,69.20
2023-05-22T03:59:36.000Z,68.90
2023-05-22T04:02:02.900Z,68.80
2023-05-22T04:04:29.993Z,68.40
2023-05-22T04:06:58.266Z,68.40
2023-05-22T04:09:31.509Z,68.50
2023-05-22T04:11:58.808Z,68.40
2023-05-22T04:14:26.251Z,68.20
2023-05-22T04:16:53.413Z,68.10
2023-05-22T04:19:20.835Z,68.10
2023-05-22T04:21:48.688Z,68.20
2023-05-22T04:24:18.308Z,68.30
2023-05-22T04:26:45.157Z,68.40
2023-05-22T04:29:14.408Z,68.30
2023-05-22T04:31:42.098Z,68.40
2023-05-22T04:34:15.139Z,68.60
2023-05-22T04:36:45.250Z,68.60
2023-05-22T04:39:13.888Z,68.60
2023-05-22T04:41:41.077Z,68.80
2023-05-22T04:44:08.195Z,68.90
2023-05-22T04:46:36.002Z,69.20
2023-05-22T04:49:03.354Z,69.30
2023-05-22T04:51:34.926Z,69.30
2023-05-22T04:54:01.872Z,69.30
2023-05-22T04:56:36.411Z,69.20
2023-05-22T04:59:05.620Z,69.30
2023-05-22T05:01:35.076Z,69.50
2023-05-22T05:04:03.711Z,69.60
2023-05-22T05:06:30.759Z,69.50
2023-05-22T05:08:58.256Z,69.40
2023-05-22T05:11:26.030Z,69.10
2023-05-22T05:13:53.415Z,68.50
2023-05-22T05:16:20.267Z,67.20
2023-05-22T05:18:47.142Z,65.50
2023-05-22T05:21:14.164Z,63.30
2023-05-22T05:23:41.404Z,62.20
2023-05-22T05:26:08.389Z,60.80
2023-05-22T05:28:35.625Z,59.70
2023-05-22T05:31:02.994Z,58.80
2023-05-22T05:33:50.489Z,57.90
2023-05-22T05:36:28.773Z,57.10
2023-05-22T05:38:58.040Z,56.30
2023-05-22T05:41:26.733Z,54.50
2023-05-22T05:44:00.266Z,53.80
2023-05-22T05:46:30.790Z,52.80
2023-05-22T05:48:57.962Z,52.20
2023-05-22T05:51:25.063Z,51.80
2023-05-22T05:53:52.865Z,51.00
2023-05-22T05:56:21.320Z,50.40
2023-05-22T05:58:48.560Z,49.80
2023-05-22T06:01:48.534Z,49.40
2023-05-22T06:04:22.143Z,48.90
2023-05-22T06:06:51.883Z,47.60
2023-05-22T06:09:18.777Z,47.10
2023-05-22T06:12:24.040Z,46.70
2023-05-22T06:14:50.943Z,46.80
2023-05-22T06:17:17.831Z,46.40
2023-05-22T06:19:45.639Z,45.70
2023-05-22T06:22:13.720Z,45.20
2023-05-22T06:24:43.312Z,44.60
2023-05-22T06:27:15.163Z,43.90
2023-05-22T06:29:42.051Z,42.30
2023-05-22T06:32:09.141Z,41.90
2023-05-22T06:34:38.061Z,42.00
2023-05-22T06:37:06.156Z,41.50
2023-05-22T06:39:39.004Z,41.00
2023-05-22T06:42:17.152Z,40.40
2023-05-22T06:45:22.231Z,40.10
2023-05-22T06:48:07.634Z,39.30
2023-05-22T06:50:43.232Z,38.30
2023-05-22T06:53:10.196Z,37.60
2023-05-22T06:55:37.137Z,37.40
2023-05-22T06:58:11.266Z,37.20
2023-05-22T07:00:40.444Z,36.00
2023-05-22T07:03:13.481Z,35.70
2023-05-22T07:05:59.521Z,34.40
2023-05-22T07:08:29.718Z,33.70
2023-05-22T07:10:57.396Z,33.60
2023-05-22T07:13:30.365Z,33.20
2023-05-22T07:15:57.328Z,33.00
2023-05-22T07:18:24.840Z,33.60
2023-05-22T07:20:52.167Z,33.40
2023-05-22T07:23:23.323Z,33.10
2023-05-22T07:25:51.173Z,32.50
2023-05-22T07:28:21.206Z,30.90
2023-05-22T07:30:59.296Z,30.00
2023-05-22T07:33:26.502Z,29.80
2023-05-22T07:35:53.664Z,30.00
2023-05-22T07:38:21.211Z,30.00
2023-05-22T07:40:56.311Z,29.90
2023-05-22T07:43:24.211Z,29.50
2023-05-22T07:45:51.668Z,28.80
2023-05-22T07:48:23.045Z,28.80
2023-05-22T07:50:50.042Z,28.40
2023-05-22T07:53:16.881Z,28.60
2023-05-22T07:55:45.670Z,28.00
2023-05-22T07:58:13.201Z,27.90
2023-05-22T08:00:42.566Z,27.60
2023-05-22T08:03:09.455Z,27.90
2023-05-22T08:05:36.389Z,27.30
2023-05-22T08:08:04.779Z,27.30
2023-05-22T08:10:46.410Z,28.30
2023-05-22T08:13:18.871Z,29.30
2023-05-22T08:15:46.176Z,30.50
2023-05-22T08:18:13.721Z,30.80
2023-05-22T08:20:40.901Z,30.60
2023-05-22T08:23:08.000Z,30.10
2023-05-22T08:25:34.918Z,30.20
2023-05-22T08:28:01.870Z,29.30
2023-05-22T08:30:28.808Z,29.00
2023-05-22T08:32:55.654Z,29.50
2023-05-22T08:35:22.663Z,29.30
2023-05-22T08:37:49.494Z,29.90
2023-05-22T08:40:17.046Z,29.70
2023-05-22T08:42:44.002Z,30.00
2023-05-22T08:45:10.975Z,30.90
2023-05-22T08:47:39.369Z,31.30
2023-05-22T08:50:07.251Z,31.10
2023-05-22T08:52:37.392Z,30.80
2023-05-22T08:55:07.608Z,30.70
2023-05-22T08:57:34.918Z,30.00
2023-05-22T09:00:01.800Z,29.70
2023-05-22T09:02:28.735Z,29.00
2023-05-22T09:04:57.310Z,29.10
2023-05-22T09:07:24.992Z,29.70
2023-05-22T09:09:51.870Z,29.00
2023-05-22T09:12:18.757Z,29.50
2023-05-22T09:14:45.570Z,28.90
2023-05-22T09:17:14.815Z,28.50
2023-05-22T09:19:45.889Z,28.90
2023-05-22T09:22:13.971Z,28.90
2023-05-22T09:24:44.685Z,29.10
2023-05-22T09:27:11.919Z,29.10
2023-05-22T09:29:49.433Z,29.40
2023-05-22T09:32:17.103Z,29.50
2023-05-22T09:34:47.605Z,29.20
2023-05-22T09:37:14.867Z,28.90
2023-05-22T09:39:46.006Z,28.90
2023-05-22T09:42:15.662Z,29.50
2023-05-22T09:44:44.234Z,29.20
2023-05-22T09:47:11.681Z,29.70
2023-05-22T09:49:45.405Z,29.80
2023-05-22T09:52:15.191Z,29.20
2023-05-22T09:54:46.681Z,29.20
2023-05-22T09:57:14.083Z,28.40
2023-05-22T09:59:43.007Z,28.40
2023-05-22T10:02:10.769Z,28.60
2023-05-22T10:04:38.415Z,29.10
2023-05-22T10:07:06.068Z,28.40
2023-05-22T10:09:35.879Z,28.70
2023-05-22T10:12:05.699Z,28.30
2023-05-22T10:14:34.915Z,28.80
2023-05-22T10:17:04.854Z,28.60
2023-05-22T10:19:33.232Z,28.40
2023-05-22T10:22:00.459Z,28.00
2023-05-22T10:24:27.425Z,28.40
2023-05-22T10:26:54.495Z,28.80
2023-05-22T10:29:36.663Z,28.30
2023-05-22T10:32:09.352Z,28.20
2023-05-22T10:35:01.810Z,28.20
2023-05-22T10:37:52.142Z,28.00
2023-05-22T10:40:29.083Z,28.10
2023-05-22T10:42:59.750Z,28.50
2023-05-22T10:45:28.264Z,28.20
2023-05-22T10:48:11.856Z,28.20
2023-05-22T10:50:39.501Z,28.40
2023-05-22T10:53:24.748Z,28.40
2023-05-22T10:55:52.582Z,28.20
2023-05-22T10:58:25.936Z,27.30
2023-05-22T11:01:09.494Z,26.90
2023-05-22T11:03:55.587Z,27.00
2023-05-22T11:06:31.668Z,27.50
2023-05-22T11:08:58.915Z,27.30
2023-05-22T11:11:26.741Z,27.40
2023-05-22T11:13:54.000Z,27.30
2023-05-22T11:16:22.501Z,27.10
2023-05-22T11:18:49.428Z,26.60
2023-05-22T11:21:16.848Z,26.40
2023-05-22T11:23:43.814Z,26.20
2023-05-22T11:26:22.296Z,26.50
2023-05-22T11:28:49.554Z,27.00
2023-05-22T11:31:17.163Z,27.40
2023-05-22T11:33:45.581Z,27.50
2023-05-22T11:36:12.897Z,27.40
2023-05-22T11:38:40.756Z,27.50
2023-05-22T11:41:13.683Z,28.10
2023-05-22T11:43:42.256Z,28.30
2023-05-22T11:46:10.494Z,28.70
2023-05-22T11:48:40.538Z,28.40
2023-05-22T11:51:07.841Z,28.20
2023-05-22T11:53:35.187Z,28.50
2023-05-22T11:56:03.272Z,28.20
2023-05-22T11:58:30.847Z,28.20
2023-05-22T12:01:01.614Z,28.80
2023-05-22T12:03:29.250Z,29.40
2023-05-22T12:05:56.908Z,29.30
2023-05-22T12:08:24.930Z,29.60
2023-05-22T12:10:52.892Z,29.10
2023-05-22T12:13:26.826Z,30.00
2023-05-22T12:15:55.056Z,30.90
2023-05-22T12:18:22.045Z,31.30
2023-05-22T12:20:52.135Z,32.30
2023-05-22T12:23:22.746Z,33.20
2023-05-22T12:25:59.596Z,33.60
2023-05-22T12:28:26.671Z,33.30
2023-05-22T12:30:54.692Z,33.60
2023-05-22T12:33:31.074Z,33.50
2023-05-22T12:36:01.323Z,33.70
2023-05-22T12:38:29.561Z,34.00
2023-05-22T12:40:56.572Z,34.10
2023-05-22T12:43:25.020Z,34.80
2023-05-22T12:45:52.212Z,34.50
2023-05-22T12:48:19.795Z,35.10
2023-05-22T12:50:46.935Z,35.20
2023-05-22T12:53:13.829Z,34.70
2023-05-22T12:55:41.014Z,35.00
2023-05-22T12:58:08.122Z,34.60
2023-05-22T13:00:35.027Z,34.40
2023-05-22T13:03:02.195Z,34.80
2023-05-22T13:05:29.105Z,34.20
2023-05-22T13:07:56.010Z,34.60
2023-05-22T13:10:22.876Z,35.00
2023-05-22T13:12:51.598Z,34.70
2023-05-22T13:15:18.697Z,33.80
2023-05-22T13:17:45.882Z,34.00
2023-05-22T13:20:13.492Z,34.10
2023-05-22T13:22:41.756Z,34.00
2023-05-22T13:25:08.782Z,33.80
2023-05-22T13:27:35.866Z,33.70
2023-05-22T13:30:02.884Z,34.20
2023-05-22T13:32:29.906Z,34.50
2023-05-22T13:34:56.778Z,34.80
2023-05-22T13:37:23.948Z,35.50
2023-05-22T13:39:50.776Z,36.00
2023-05-22T13:42:17.944Z,36.20
2023-05-22T13:44:44.819Z,36.40
2023-05-22T13:47:11.862Z,38.10
2023-05-22T13:49:38.732Z,38.10
2023-05-22T13:52:05.714Z,38.30
2023-05-22T13:54:32.604Z,39.40
2023-05-22T13:57:02.269Z,39.60
2023-05-22T13:59:29.538Z,38.50
2023-05-22T14:01:56.478Z,39.10
2023-05-22T14:04:23.635Z,40.00
2023-05-22T14:06:50.749Z,40.60
2023-05-22T14:09:17.827Z,41.20
2023-05-22T14:11:44.779Z,41.80
2023-05-22T14:14:11.630Z,42.40
2023-05-22T14:16:38.634Z,42.80
2023-05-22T14:19:05.796Z,43.30
2023-05-22T14:21:33.028Z,43.10
2023-05-22T14:24:02.393Z,42.50
2023-05-22T14:26:29.337Z,42.60
2023-05-22T14:28:56.393Z,42.90
2023-05-22T14:31:23.317Z,42.60
2023-05-22T14:33:50.192Z,41.90
2023-05-22T14:36:17.946Z,40.90
2023-05-22T14:38:44.852Z,41.20
2023-05-22T14:41:11.746Z,42.20
2023-05-22T14:43:38.601Z,42.10
2023-05-22T14:46:05.796Z,41.90
2023-05-22T14:48:32.664Z,42.60
2023-05-22T14:50:59.569Z,42.50
2023-05-22T14:53:26.430Z,42.60
2023-05-22T14:55:53.320Z,41.40
2023-05-22T14:58:20.160Z,41.10
2023-05-22T15:00:47.411Z,40.50
2023-05-22T15:03:14.439Z,42.00
2023-05-22T15:05:41.460Z,41.90
2023-05-22T15:08:08.592Z,41.20
2023-05-22T15:10:36.253Z,41.20
2023-05-22T15:13:03.144Z,40.60
2023-05-22T15:15:30.017Z,40.00
2023-05-22T15:17:57.389Z,40.30
2023-05-22T15:20:24.260Z,41.20
2023-05-22T15:22:51.320Z,41.50
2023-05-22T15:25:18.168Z,40.80
2023-05-22T15:27:45.005Z,40.80
2023-05-22T15:30:12.467Z,40.40
2023-05-22T15:32:39.571Z,41.60
2023-05-22T15:35:07.071Z,40.90
2023-05-22T15:37:34.183Z,40.20
2023-05-22T15:40:01.913Z,39.50
2023-05-22T15:42:29.151Z,38.60
2023-05-22T15:44:56.609Z,37.80
2023-05-22T15:47:23.481Z,37.10
2023-05-22T15:49:50.532Z,37.90
2023-05-22T15:52:18.033Z,38.10
2023-05-22T15:54:44.927Z,37.40
2023-05-22T15:57:11.769Z,37.70
2023-05-22T15:59:38.661Z,37.50
2023-05-22T16:02:05.551Z,37.00
2023-05-22T16:04:32.666Z,37.40
2023-05-22T16:06:59.616Z,37.60
2023-05-22T16:09:26.466Z,37.60
2023-05-22T16:11:53.387Z,37.20
2023-05-22T16:14:20.298Z,37.20
2023-05-22T16:16:47.125Z,37.40
2023-05-22T16:19:14.067Z,38.10
2023-05-22T16:21:41.132Z,37.00
2023-05-22T16:24:08.901Z,37.20
2023-05-22T16:26:37.736Z,37.70
2023-05-22T16:29:07.344Z,37.50
2023-05-22T16:31:35.718Z,37.80
2023-05-22T16:34:03.232Z,37.70
2023-05-22T16:36:30.217Z,37.90
2023-05-22T16:38:57.285Z,38.20
2023-05-22T16:41:24.332Z,38.00
2023-05-22T16:43:51.353Z,37.80
2023-05-22T16:46:18.357Z,38.10
2023-05-22T16:48:45.279Z,37.90
2023-05-22T16:51:12.205Z,38.40
2023-05-22T16:53:41.890Z,38.90
2023-05-22T16:56:08.804Z,39.50
2023-05-22T16:58:35.918Z,39.70
2023-05-22T17:01:02.980Z,39.70
2023-05-22T17:03:29.961Z,41.10
2023-05-22T17:05:57.099Z,40.20
2023-05-22T17:08:24.021Z,40.50
2023-05-22T17:10:51.070Z,41.10
2023-05-22T17:13:20.853Z,41.70
2023-05-22T17:15:48.807Z,43.00
2023-05-22T17:18:19.650Z,42.90
2023-05-22T17:20:49.919Z,43.30
2023-05-22T17:23:17.859Z,44.10
2023-05-22T17:25:46.674Z,45.90
2023-05-22T17:28:17.408Z,46.80
2023-05-22T17:30:45.216Z,47.40
2023-05-22T17:33:12.827Z,48.40
2023-05-22T17:35:39.736Z,49.30
2023-05-22T17:38:08.483Z,49.90
2023-05-22T17:40:45.026Z,50.60
2023-05-22T17:43:12.974Z,51.30
2023-05-22T17:45:40.207Z,51.60
2023-05-22T17:48:07.784Z,52.00
2023-05-22T17:50:34.832Z,52.00
2023-05-22T17:53:01.712Z,52.60
2023-05-22T17:55:28.586Z,53.00
2023-05-22T17:57:56.119Z,53.10
2023-05-22T18:00:23.050Z,54.00
2023-05-22T18:02:49.966Z,54.80
2023-05-22T18:05:16.913Z,54.90
2023-05-22T18:07:43.878Z,55.20
2023-05-22T18:10:11.067Z,55.60
2023-05-22T18:12:38.659Z,56.20
2023-05-22T18:15:08.494Z,57.30
2023-05-22T18:17:35.716Z,57.10
2023-05-22T18:20:03.207Z,57.50
2023-05-22T18:22:30.156Z,57.80
2023-05-22T18:24:57.168Z,58.10
2023-05-22T18:27:24.074Z,58.50
2023-05-22T18:29:52.586Z,58.70
2023-05-22T18:32:19.428Z,59.10
2023-05-22T18:34:46.549Z,59.30
2023-05-22T18:37:14.093Z,59.50
2023-05-22T18:39:41.103Z,59.70
2023-05-22T18:42:08.044Z,60.70
2023-05-22T18:44:35.022Z,60.10
2023-05-22T18:47:02.009Z,60.40
2023-05-22T18:49:28.884Z,60.70
2023-05-22T18:51:55.745Z,61.00
2023-05-22T18:54:22.577Z,61.30
2023-05-22T18:56:49.425Z,61.60
2023-05-22T18:59:16.423Z,61.90
2023-05-22T19:01:43.364Z,62.10
2023-05-22T19:04:10.373Z,62.30
2023-05-22T19:06:37.872Z,62.60
2023-05-22T19:09:05.212Z,62.80
2023-05-22T19:11:32.095Z,63.00
2023-05-22T19:13:59.774Z,63.10
2023-05-22T19:16:26.918Z,63.20
2023-05-22T19:18:53.926Z,63.40
2023-05-22T19:21:20.762Z,63.60
2023-05-22T19:23:48.410Z,63.80
2023-05-22T19:26:15.396Z,64.00
2023-05-22T19:28:43.191Z,64.10
2023-05-22T19:31:10.204Z,64.40
2023-05-22T19:33:37.478Z,64.50
2023-05-22T19:36:06.624Z,64.60
2023-05-22T19:38:33.572Z,64.70
2023-05-22T19:41:00.650Z,64.80
2023-05-22T19:43:27.695Z,64.90
2023-05-22T19:45:55.551Z,65.10
2023-05-22T19:48:22.472Z,65.20
2023-05-22T19:50:50.133Z,65.30
2023-05-22T19:53:16.981Z,65.30
2023-05-22T19:55:43.899Z,65.40
2023-05-22T19:58:10.754Z,65.50
2023-05-22T20:00:38.092Z,65.50
2023-05-22T20:03:05.424Z,65.60
2023-05-22T20:05:32.404Z,65.70
2023-05-22T20:07:59.308Z,65.80
2023-05-22T20:10:26.182Z,66.00
2023-05-22T20:12:54.103Z,66.00
2023-05-22T20:15:21.545Z,66.20
2023-05-22T20:17:51.891Z,66.20
2023-05-22T20:20:23.893Z,66.30
2023-05-22T20:22:52.754Z,66.30
2023-05-22T20:25:21.217Z,66.30
2023-05-22T20:27:48.130Z,66.30
2023-05-22T20:30:15.045Z,66.30
2023-05-22T20:32:46.557Z,66.30
2023-05-22T20:35:13.634Z,66.40
2023-05-22T20:37:41.708Z,66.40
2023-05-22T20:40:09.523Z,66.40
2023-05-22T20:42:37.451Z,66.50
2023-05-22T20:45:05.078Z,66.60
2023-05-22T20:47:31.940Z,66.70
2023-05-22T20:49:58.856Z,66.90
2023-05-22T20:52:30.326Z,67.00
2023-05-22T20:54:57.880Z,67.20
2023-05-22T20:57:27.562Z,67.40
2023-05-22T20:59:54.515Z,67.50
2023-05-22T21:02:21.511Z,67.70
2023-05-22T21:04:48.382Z,67.80
2023-05-22T21:07:15.479Z,67.80
2023-05-22T21:09:42.370Z,67.90
2023-05-22T21:12:09.296Z,68.10
2023-05-22T21:14:36.212Z,68.10
2023-05-22T21:17:03.403Z,68.10
2023-05-22T21:19:30.391Z,68.30
2023-05-22T21:21:57.298Z,68.30
2023-05-22T21:24:24.146Z,68.40
2023-05-22T21:26:50.984Z,68.50
2023-05-22T21:29:17.849Z,68.50
2023-05-22T21:31:45.677Z,68.60
2023-05-22T21:34:12.530Z,68.70
2023-05-22T21:36:39.382Z,68.90
2023-05-22T21:39:06.517Z,68.90
2023-05-22T21:41:33.501Z,69.10
2023-05-22T21:44:00.377Z,69.10
2023-05-22T21:46:27.282Z,69.10
2023-05-22T21:48:54.199Z,69.10
2023-05-22T21:51:21.092Z,69.00
2023-05-22T21:53:47.997Z,68.90
2023-05-22T21:56:14.893Z,68.90
2023-05-22T21:58:42.050Z,68.80
2023-05-22T22:01:10.138Z,68.80
2023-05-22T22:03:38.805Z,68.80
2023-05-22T22:06:06.060Z,68.60
2023-05-22T22:08:33.094Z,68.60
2023-05-22T22:10:59.999Z,68.50
2023-05-22T22:13:26.864Z,68.40
2023-05-22T22:15:53.713Z,68.40
2023-05-22T22:18:20.611Z,68.30
2023-05-22T22:20:50.219Z,68.20
2023-05-22T22:23:17.481Z,68.20
2023-05-22T22:25:44.340Z,68.10
2023-05-22T22:28:11.437Z,68.00
2023-05-22T22:30:38.456Z,67.90
2023-05-22T22:33:05.628Z,68.00
2023-05-22T22:35:32.553Z,68.00
2023-05-22T22:37:59.394Z,68.00
2023-05-22T22:40:38.273Z,68.00
2023-05-22T22:43:05.219Z,68.00
2023-05-22T22:45:32.044Z,67.80
2023-05-22T22:48:00.539Z,67.60
2023-05-22T22:50:28.116Z,67.40
2023-05-22T22:52:55.581Z,67.00
2023-05-22T22:55:22.586Z,66.70
2023-05-22T22:57:50.152Z,66.50
2023-05-22T23:00:17.951Z,66.40
2023-05-22T23:02:44.942Z,66.30
2023-05-22T23:05:12.279Z,67.10
2023-05-22T23:07:39.259Z,66.20
2023-05-22T23:10:06.597Z,66.00
2023-05-22T23:12:35.984Z,65.90
2023-05-22T23:15:03.328Z,66.60
2023-05-22T23:17:30.310Z,65.70
2023-05-22T23:19:57.360Z,65.60
2023-05-22T23:22:24.204Z,65.50
2023-05-22T23:24:51.129Z,65.40
2023-05-22T23:27:18.086Z,65.40
2023-05-22T23:29:44.969Z,65.30
2023-05-22T23:32:13.872Z,65.20
2023-05-22T23:34:42.455Z,65.20
2023-05-22T23:37:09.464Z,65.00
2023-05-22T23:39:36.429Z,65.00
2023-05-22T23:42:03.318Z,64.90
2023-05-22T23:44:30.575Z,64.90
2023-05-22T23:46:57.745Z,64.90
2023-05-22T23:49:24.723Z,64.80
2023-05-22T23:51:51.586Z,64.80
2023-05-22T23:54:18.441Z,64.90
2023-05-22T23:56:45.304Z,64.90
2023-05-22T23:59:12.242Z,64.80
